sensor_id;sensor_type;location;lat;lon;timestamp;pressure;altitude;pressure_sealevel;temperature;humidity
73383;BME280;61600;48.126;11.542;2022-07-23T00:00:05;95641.69;;;25.49;50.00
73383;BME280;61600;48.126;11.542;2022-07-23T00:02:31;95648.94;;;25.53;50.52
73383;BME280;61600;48.126;11.542;2022-07-23T00:04:56;95640.88;;;25.48;49.66
73383;BME280;61600;48.126;11.542;2022-07-23T00:07:22;95638.47;;;25.43;49.23
73383;BME280;61600;48.126;11.542;2022-07-23T00:09:47;95633.66;;;25.40;49.37
73383;BME280;61600;48.126;11.542;2022-07-23T00:12:13;95616.19;;;25.43;49.62
73383;BME280;61600;48.126;11.542;2022-07-23T00:14:38;95620.09;;;25.39;49.65
73383;BME280;61600;48.126;11.542;2022-07-23T00:17:04;95624.44;;;25.36;49.93
73383;BME280;61600;48.126;11.542;2022-07-23T00:19:29;95617.63;;;25.33;49.86
73383;BME280;61600;48.126;11.542;2022-07-23T00:21:55;95619.22;;;25.31;49.23
73383;BME280;61600;48.126;11.542;2022-07-23T00:24:21;95623.59;;;25.32;49.36
73383;BME280;61600;48.126;11.542;2022-07-23T00:26:47;95626.72;;;25.27;48.59
73383;BME280;61600;48.126;11.542;2022-07-23T00:29:13;95628.66;;;25.23;48.57
73383;BME280;61600;48.126;11.542;2022-07-23T00:31:38;95631.44;;;25.23;48.13
73383;BME280;61600;48.126;11.542;2022-07-23T00:34:04;95636.22;;;25.22;48.26
73383;BME280;61600;48.126;11.542;2022-07-23T00:36:30;95633.44;;;25.22;47.62
73383;BME280;61600;48.126;11.542;2022-07-23T00:38:56;95643.63;;;25.11;47.69
73383;BME280;61600;48.126;11.542;2022-07-23T00:41:25;95652.31;;;25.06;48.53
73383;BME280;61600;48.126;11.542;2022-07-23T00:43:51;95651.22;;;25.14;48.14
73383;BME280;61600;48.126;11.542;2022-07-23T00:46:20;95656.78;;;25.14;48.87
73383;BME280;61600;48.126;11.542;2022-07-23T00:48:46;95674.00;;;24.67;49.65
73383;BME280;61600;48.126;11.542;2022-07-23T00:51:12;95671.50;;;24.85;49.62
73383;BME280;61600;48.126;11.542;2022-07-23T00:53:38;95672.00;;;24.91;50.13
73383;BME280;61600;48.126;11.542;2022-07-23T00:56:05;95680.34;;;24.91;49.59
73383;BME280;61600;48.126;11.542;2022-07-23T00:58:31;95679.50;;;24.87;49.55
73383;BME280;61600;48.126;11.542;2022-07-23T01:00:58;95688.91;;;24.82;49.73
73383;BME280;61600;48.126;11.542;2022-07-23T01:03:23;95693.63;;;24.78;49.87
73383;BME280;61600;48.126;11.542;2022-07-23T01:05:49;95707.88;;;24.73;49.88
73383;BME280;61600;48.126;11.542;2022-07-23T01:08:14;95737.38;;;24.55;50.37
73383;BME280;61600;48.126;11.542;2022-07-23T01:10:41;95759.94;;;24.50;50.70
73383;BME280;61600;48.126;11.542;2022-07-23T01:13:09;95775.38;;;24.24;51.86
73383;BME280;61600;48.126;11.542;2022-07-23T01:15:37;95775.63;;;24.38;52.08
73383;BME280;61600;48.126;11.542;2022-07-23T01:18:04;95792.16;;;24.51;52.43
73383;BME280;61600;48.126;11.542;2022-07-23T01:20:31;95811.56;;;24.47;52.54
73383;BME280;61600;48.126;11.542;2022-07-23T01:22:57;95811.91;;;24.46;50.21
73383;BME280;61600;48.126;11.542;2022-07-23T01:25:23;95853.22;;;24.05;50.34
73383;BME280;61600;48.126;11.542;2022-07-23T01:27:51;95856.66;;;23.99;49.31
73383;BME280;61600;48.126;11.542;2022-07-23T01:30:18;95854.44;;;23.34;51.17
73383;BME280;61600;48.126;11.542;2022-07-23T01:32:43;95880.06;;;22.65;53.57
73383;BME280;61600;48.126;11.542;2022-07-23T01:35:09;95866.94;;;21.91;55.97
73383;BME280;61600;48.126;11.542;2022-07-23T01:37:35;95853.19;;;21.82;55.80
73383;BME280;61600;48.126;11.542;2022-07-23T01:40:01;95825.66;;;21.74;57.09
73383;BME280;61600;48.126;11.542;2022-07-23T01:42:27;95814.47;;;21.70;58.20
73383;BME280;61600;48.126;11.542;2022-07-23T01:44:53;95831.94;;;21.59;59.92
73383;BME280;61600;48.126;11.542;2022-07-23T01:47:19;95819.28;;;21.46;60.49
73383;BME280;61600;48.126;11.542;2022-07-23T01:49:44;95811.13;;;21.37;61.37
73383;BME280;61600;48.126;11.542;2022-07-23T01:52:10;95835.09;;;21.09;62.75
73383;BME280;61600;48.126;11.542;2022-07-23T01:54:37;95833.28;;;21.13;63.07
73383;BME280;61600;48.126;11.542;2022-07-23T01:57:04;95819.94;;;20.78;64.96
73383;BME280;61600;48.126;11.542;2022-07-23T01:59:31;95801.13;;;20.84;65.76
73383;BME280;61600;48.126;11.542;2022-07-23T02:01:57;95779.25;;;20.91;65.06
73383;BME280;61600;48.126;11.542;2022-07-23T02:04:24;95803.75;;;21.05;64.41
73383;BME280;61600;48.126;11.542;2022-07-23T02:06:50;95794.44;;;20.97;65.84
73383;BME280;61600;48.126;11.542;2022-07-23T02:09:17;95797.66;;;20.99;64.21
73383;BME280;61600;48.126;11.542;2022-07-23T02:11:43;95801.72;;;20.89;64.80
73383;BME280;61600;48.126;11.542;2022-07-23T02:14:09;95805.63;;;20.76;65.78
73383;BME280;61600;48.126;11.542;2022-07-23T02:16:35;95796.31;;;20.69;65.44
73383;BME280;61600;48.126;11.542;2022-07-23T02:19:01;95791.34;;;20.62;65.37
73383;BME280;61600;48.126;11.542;2022-07-23T02:21:26;95770.41;;;20.61;65.13
73383;BME280;61600;48.126;11.542;2022-07-23T02:23:52;95764.19;;;20.40;66.55
73383;BME280;61600;48.126;11.542;2022-07-23T02:26:18;95768.28;;;20.22;68.25
73383;BME280;61600;48.126;11.542;2022-07-23T02:28:43;95765.59;;;20.01;68.71
73383;BME280;61600;48.126;11.542;2022-07-23T02:31:09;95740.59;;;19.85;70.78
73383;BME280;61600;48.126;11.542;2022-07-23T02:33:35;95737.00;;;19.73;70.80
73383;BME280;61600;48.126;11.542;2022-07-23T02:36:00;95736.88;;;19.69;71.10
73383;BME280;61600;48.126;11.542;2022-07-23T02:38:26;95722.50;;;19.76;71.40
73383;BME280;61600;48.126;11.542;2022-07-23T02:40:51;95719.28;;;19.74;70.97
73383;BME280;61600;48.126;11.542;2022-07-23T02:43:17;95741.28;;;19.82;70.99
73383;BME280;61600;48.126;11.542;2022-07-23T02:45:43;95724.50;;;19.87;71.30
73383;BME280;61600;48.126;11.542;2022-07-23T02:48:08;95732.78;;;19.87;71.98
73383;BME280;61600;48.126;11.542;2022-07-23T02:50:34;95742.56;;;19.97;71.63
73383;BME280;61600;48.126;11.542;2022-07-23T02:52:59;95782.78;;;20.19;70.76
73383;BME280;61600;48.126;11.542;2022-07-23T02:55:25;95790.28;;;20.30;70.72
73383;BME280;61600;48.126;11.542;2022-07-23T02:57:51;95842.81;;;20.42;70.25
73383;BME280;61600;48.126;11.542;2022-07-23T03:00:17;95852.72;;;20.43;68.20
73383;BME280;61600;48.126;11.542;2022-07-23T03:02:42;95845.78;;;20.37;68.93
73383;BME280;61600;48.126;11.542;2022-07-23T03:05:08;95848.56;;;20.37;68.05
73383;BME280;61600;48.126;11.542;2022-07-23T03:07:34;95852.72;;;20.56;67.96
73383;BME280;61600;48.126;11.542;2022-07-23T03:10:00;95859.06;;;20.56;66.97
73383;BME280;61600;48.126;11.542;2022-07-23T03:12:26;95833.88;;;20.58;66.77
73383;BME280;61600;48.126;11.542;2022-07-23T03:14:51;95847.09;;;20.64;67.96
73383;BME280;61600;48.126;11.542;2022-07-23T03:17:17;95841.81;;;20.71;68.12
73383;BME280;61600;48.126;11.542;2022-07-23T03:19:42;95830.41;;;20.73;67.85
73383;BME280;61600;48.126;11.542;2022-07-23T03:22:08;95825.47;;;20.78;67.04
73383;BME280;61600;48.126;11.542;2022-07-23T03:24:34;95830.28;;;20.81;67.54
73383;BME280;61600;48.126;11.542;2022-07-23T03:27:20;95830.19;;;20.78;68.02
73383;BME280;61600;48.126;11.542;2022-07-23T03:29:46;95828.66;;;20.80;68.58
73383;BME280;61600;48.126;11.542;2022-07-23T03:32:12;95811.88;;;20.85;67.69
73383;BME280;61600;48.126;11.542;2022-07-23T03:34:38;95789.63;;;20.82;67.22
73383;BME280;61600;48.126;11.542;2022-07-23T03:37:04;95762.91;;;20.86;68.19
73383;BME280;61600;48.126;11.542;2022-07-23T03:39:29;95741.00;;;20.93;68.30
73383;BME280;61600;48.126;11.542;2022-07-23T03:41:55;95700.66;;;20.92;68.29
73383;BME280;61600;48.126;11.542;2022-07-23T03:44:21;95640.88;;;20.87;68.84
73383;BME280;61600;48.126;11.542;2022-07-23T03:46:47;95645.78;;;20.94;68.54
73383;BME280;61600;48.126;11.542;2022-07-23T03:49:13;95704.75;;;20.46;68.75
73383;BME280;61600;48.126;11.542;2022-07-23T03:51:38;95750.94;;;20.46;67.83
73383;BME280;61600;48.126;11.542;2022-07-23T03:54:04;95765.13;;;20.44;68.99
73383;BME280;61600;48.126;11.542;2022-07-23T03:56:30;95747.69;;;20.56;68.35
73383;BME280;61600;48.126;11.542;2022-07-23T03:58:56;95732.81;;;20.72;66.73
73383;BME280;61600;48.126;11.542;2022-07-23T04:01:21;95728.44;;;20.83;67.73
73383;BME280;61600;48.126;11.542;2022-07-23T04:03:47;95727.41;;;20.76;66.49
73383;BME280;61600;48.126;11.542;2022-07-23T04:06:12;95732.50;;;20.50;67.61
73383;BME280;61600;48.126;11.542;2022-07-23T04:08:38;95736.38;;;20.24;69.11
73383;BME280;61600;48.126;11.542;2022-07-23T04:11:04;95740.25;;;20.44;68.76
73383;BME280;61600;48.126;11.542;2022-07-23T04:13:29;95739.88;;;20.58;68.33
73383;BME280;61600;48.126;11.542;2022-07-23T04:15:55;95740.78;;;20.74;68.95
73383;BME280;61600;48.126;11.542;2022-07-23T04:18:20;95725.66;;;20.83;67.40
73383;BME280;61600;48.126;11.542;2022-07-23T04:20:50;95719.22;;;20.91;68.42
73383;BME280;61600;48.126;11.542;2022-07-23T04:23:16;95712.75;;;21.00;68.74
73383;BME280;61600;48.126;11.542;2022-07-23T04:25:42;95702.00;;;20.98;68.57
73383;BME280;61600;48.126;11.542;2022-07-23T04:28:08;95691.22;;;20.81;68.15
73383;BME280;61600;48.126;11.542;2022-07-23T04:30:34;95691.94;;;20.78;69.50
73383;BME280;61600;48.126;11.542;2022-07-23T04:33:01;95685.16;;;20.63;70.47
73383;BME280;61600;48.126;11.542;2022-07-23T04:35:26;95682.25;;;20.84;68.79
73383;BME280;61600;48.126;11.542;2022-07-23T04:37:52;95687.97;;;21.03;68.34
73383;BME280;61600;48.126;11.542;2022-07-23T04:40:18;95686.88;;;21.20;65.89
73383;BME280;61600;48.126;11.542;2022-07-23T04:42:44;95690.56;;;21.24;64.93
73383;BME280;61600;48.126;11.542;2022-07-23T04:45:09;95697.91;;;21.32;65.86
73383;BME280;61600;48.126;11.542;2022-07-23T04:47:35;95696.59;;;21.41;65.25
73383;BME280;61600;48.126;11.542;2022-07-23T04:50:01;95698.44;;;21.37;65.46
73383;BME280;61600;48.126;11.542;2022-07-23T04:52:27;95695.19;;;21.48;65.70
73383;BME280;61600;48.126;11.542;2022-07-23T04:54:52;95692.41;;;21.48;66.12
73383;BME280;61600;48.126;11.542;2022-07-23T04:57:18;95683.75;;;21.49;65.70
73383;BME280;61600;48.126;11.542;2022-07-23T04:59:44;95679.22;;;21.57;64.83
73383;BME280;61600;48.126;11.542;2022-07-23T05:02:10;95676.38;;;21.53;65.15
73383;BME280;61600;48.126;11.542;2022-07-23T05:04:35;95676.91;;;21.59;64.71
73383;BME280;61600;48.126;11.542;2022-07-23T05:07:01;95693.94;;;21.45;64.57
73383;BME280;61600;48.126;11.542;2022-07-23T05:09:27;95680.28;;;21.52;65.23
73383;BME280;61600;48.126;11.542;2022-07-23T05:11:52;95679.03;;;21.50;66.18
73383;BME280;61600;48.126;11.542;2022-07-23T05:14:18;95688.13;;;21.50;64.51
73383;BME280;61600;48.126;11.542;2022-07-23T05:16:43;95683.16;;;21.56;65.27
73383;BME280;61600;48.126;11.542;2022-07-23T05:19:09;95682.19;;;21.64;63.90
73383;BME280;61600;48.126;11.542;2022-07-23T05:21:35;95676.84;;;21.71;63.84
73383;BME280;61600;48.126;11.542;2022-07-23T05:24:00;95688.78;;;21.75;63.28
73383;BME280;61600;48.126;11.542;2022-07-23T05:26:26;95691.56;;;21.75;63.39
73383;BME280;61600;48.126;11.542;2022-07-23T05:28:51;95691.94;;;21.73;63.71
73383;BME280;61600;48.126;11.542;2022-07-23T05:31:17;95689.25;;;21.77;64.11
73383;BME280;61600;48.126;11.542;2022-07-23T05:33:43;95692.03;;;21.77;63.13
73383;BME280;61600;48.126;11.542;2022-07-23T05:36:09;95706.22;;;21.75;63.07
73383;BME280;61600;48.126;11.542;2022-07-23T05:38:35;95701.81;;;21.74;62.46
73383;BME280;61600;48.126;11.542;2022-07-23T05:41:01;95706.22;;;21.75;62.80
73383;BME280;61600;48.126;11.542;2022-07-23T05:43:26;95699.63;;;21.80;61.95
73383;BME280;61600;48.126;11.542;2022-07-23T05:45:52;95697.66;;;21.80;62.68
73383;BME280;61600;48.126;11.542;2022-07-23T05:48:19;95713.56;;;21.83;62.14
73383;BME280;61600;48.126;11.542;2022-07-23T05:50:46;95723.94;;;21.86;62.46
73383;BME280;61600;48.126;11.542;2022-07-23T05:53:12;95733.38;;;21.85;62.46
73383;BME280;61600;48.126;11.542;2022-07-23T05:55:37;95745.66;;;21.84;61.88
73383;BME280;61600;48.126;11.542;2022-07-23T05:58:03;95740.25;;;21.76;62.35
73383;BME280;61600;48.126;11.542;2022-07-23T06:00:29;95747.22;;;21.70;62.68
73383;BME280;61600;48.126;11.542;2022-07-23T06:02:55;95754.38;;;21.71;61.55
73383;BME280;61600;48.126;11.542;2022-07-23T06:05:21;95755.25;;;21.75;61.10
73383;BME280;61600;48.126;11.542;2022-07-23T06:07:46;95750.00;;;21.85;60.52
73383;BME280;61600;48.126;11.542;2022-07-23T06:10:12;95747.66;;;21.72;62.14
73383;BME280;61600;48.126;11.542;2022-07-23T06:12:38;95735.25;;;21.81;61.72
73383;BME280;61600;48.126;11.542;2022-07-23T06:15:04;95722.59;;;21.80;63.81
73383;BME280;61600;48.126;11.542;2022-07-23T06:17:30;95719.44;;;21.82;64.09
73383;BME280;61600;48.126;11.542;2022-07-23T06:19:56;95712.84;;;21.86;64.54
73383;BME280;61600;48.126;11.542;2022-07-23T06:22:22;95706.72;;;21.93;64.34
73383;BME280;61600;48.126;11.542;2022-07-23T06:24:48;95688.94;;;21.94;64.71
73383;BME280;61600;48.126;11.542;2022-07-23T06:27:14;95680.53;;;21.90;65.26
73383;BME280;61600;48.126;11.542;2022-07-23T06:29:40;95685.59;;;21.88;65.58
73383;BME280;61600;48.126;11.542;2022-07-23T06:32:06;95694.38;;;22.06;63.59
73383;BME280;61600;48.126;11.542;2022-07-23T06:34:32;95712.91;;;22.18;62.53
73383;BME280;61600;48.126;11.542;2022-07-23T06:36:59;95714.03;;;22.17;63.04
73383;BME280;61600;48.126;11.542;2022-07-23T06:39:25;95704.06;;;22.12;63.47
73383;BME280;61600;48.126;11.542;2022-07-23T06:41:50;95722.00;;;22.03;64.60
73383;BME280;61600;48.126;11.542;2022-07-23T06:44:16;95748.13;;;21.89;63.89
73383;BME280;61600;48.126;11.542;2022-07-23T06:46:42;95752.78;;;21.85;64.17
73383;BME280;61600;48.126;11.542;2022-07-23T06:49:08;95760.88;;;21.90;63.90
73383;BME280;61600;48.126;11.542;2022-07-23T06:51:34;95764.84;;;21.77;64.01
73383;BME280;61600;48.126;11.542;2022-07-23T06:53:59;95770.66;;;21.88;62.72
73383;BME280;61600;48.126;11.542;2022-07-23T06:56:25;95772.88;;;21.82;63.50
73383;BME280;61600;48.126;11.542;2022-07-23T06:58:50;95776.06;;;21.97;62.88
73383;BME280;61600;48.126;11.542;2022-07-23T07:01:16;95771.00;;;21.99;62.61
73383;BME280;61600;48.126;11.542;2022-07-23T07:03:42;95772.44;;;22.08;62.66
73383;BME280;61600;48.126;11.542;2022-07-23T07:06:08;95785.66;;;21.87;63.27
73383;BME280;61600;48.126;11.542;2022-07-23T07:08:34;95779.34;;;21.59;64.96
73383;BME280;61600;48.126;11.542;2022-07-23T07:11:00;95777.09;;;21.64;64.89
73383;BME280;61600;48.126;11.542;2022-07-23T07:13:26;95772.28;;;21.61;65.41
73383;BME280;61600;48.126;11.542;2022-07-23T07:15:52;95776.16;;;21.72;64.75
73383;BME280;61600;48.126;11.542;2022-07-23T07:18:18;95774.41;;;21.52;65.53
73383;BME280;61600;48.126;11.542;2022-07-23T07:20:43;95773.09;;;21.62;66.15
73383;BME280;61600;48.126;11.542;2022-07-23T07:23:09;95771.97;;;21.78;65.70
73383;BME280;61600;48.126;11.542;2022-07-23T07:25:35;95765.81;;;21.85;65.66
73383;BME280;61600;48.126;11.542;2022-07-23T07:28:01;95769.03;;;21.87;65.26
73383;BME280;61600;48.126;11.542;2022-07-23T07:30:26;95778.59;;;21.89;65.48
73383;BME280;61600;48.126;11.542;2022-07-23T07:32:52;95779.41;;;22.02;65.29
73383;BME280;61600;48.126;11.542;2022-07-23T07:35:18;95791.72;;;22.05;64.92
73383;BME280;61600;48.126;11.542;2022-07-23T07:37:43;95787.44;;;22.07;65.23
73383;BME280;61600;48.126;11.542;2022-07-23T07:40:09;95787.38;;;22.19;63.59
73383;BME280;61600;48.126;11.542;2022-07-23T07:42:44;95790.38;;;22.14;63.97
73383;BME280;61600;48.126;11.542;2022-07-23T07:45:10;95792.34;;;22.14;63.99
73383;BME280;61600;48.126;11.542;2022-07-23T07:47:35;95795.03;;;22.10;63.94
73383;BME280;61600;48.126;11.542;2022-07-23T07:50:01;95802.19;;;22.11;64.08
73383;BME280;61600;48.126;11.542;2022-07-23T07:52:27;95816.94;;;22.15;64.32
73383;BME280;61600;48.126;11.542;2022-07-23T07:54:52;95814.81;;;22.24;63.58
73383;BME280;61600;48.126;11.542;2022-07-23T07:57:18;95811.41;;;22.31;64.12
73383;BME280;61600;48.126;11.542;2022-07-23T07:59:44;95803.47;;;22.29;63.72
73383;BME280;61600;48.126;11.542;2022-07-23T08:02:09;95807.66;;;22.39;63.87
73383;BME280;61600;48.126;11.542;2022-07-23T08:04:35;95802.50;;;22.37;63.82
73383;BME280;61600;48.126;11.542;2022-07-23T08:07:00;95799.25;;;22.35;64.08
73383;BME280;61600;48.126;11.542;2022-07-23T08:09:26;95793.72;;;22.35;63.32
73383;BME280;61600;48.126;11.542;2022-07-23T08:11:52;95784.69;;;22.38;63.50
73383;BME280;61600;48.126;11.542;2022-07-23T08:14:18;95793.16;;;22.14;65.17
73383;BME280;61600;48.126;11.542;2022-07-23T08:16:43;95796.22;;;22.09;64.18
73383;BME280;61600;48.126;11.542;2022-07-23T08:19:09;95812.94;;;22.28;63.62
73383;BME280;61600;48.126;11.542;2022-07-23T08:21:34;95801.59;;;22.33;62.52
73383;BME280;61600;48.126;11.542;2022-07-23T08:24:00;95806.22;;;22.14;63.80
73383;BME280;61600;48.126;11.542;2022-07-23T08:26:25;95806.50;;;22.24;63.51
73383;BME280;61600;48.126;11.542;2022-07-23T08:28:51;95801.50;;;22.46;62.40
73383;BME280;61600;48.126;11.542;2022-07-23T08:31:17;95809.91;;;22.33;63.36
73383;BME280;61600;48.126;11.542;2022-07-23T08:33:44;95802.31;;;22.46;61.81
73383;BME280;61600;48.126;11.542;2022-07-23T08:36:10;95813.34;;;22.74;60.56
73383;BME280;61600;48.126;11.542;2022-07-23T08:38:35;95801.06;;;22.90;60.24
73383;BME280;61600;48.126;11.542;2022-07-23T08:41:01;95809.19;;;22.99;59.71
73383;BME280;61600;48.126;11.542;2022-07-23T08:43:30;95804.72;;;23.10;60.17
73383;BME280;61600;48.126;11.542;2022-07-23T08:45:57;95803.47;;;23.08;59.63
73383;BME280;61600;48.126;11.542;2022-07-23T08:48:27;95807.25;;;23.34;58.79
73383;BME280;61600;48.126;11.542;2022-07-23T08:50:59;95809.09;;;23.11;58.93
73383;BME280;61600;48.126;11.542;2022-07-23T08:53:26;95809.50;;;23.29;58.55
73383;BME280;61600;48.126;11.542;2022-07-23T08:55:57;95804.72;;;23.45;58.18
73383;BME280;61600;48.126;11.542;2022-07-23T08:58:23;95814.59;;;23.62;57.76
73383;BME280;61600;48.126;11.542;2022-07-23T09:00:50;95816.97;;;23.60;57.56
73383;BME280;61600;48.126;11.542;2022-07-23T09:03:17;95827.41;;;23.66;57.31
73383;BME280;61600;48.126;11.542;2022-07-23T09:05:43;95826.97;;;23.64;57.50
73383;BME280;61600;48.126;11.542;2022-07-23T09:08:23;95847.34;;;23.53;58.13
73383;BME280;61600;48.126;11.542;2022-07-23T09:10:57;95858.69;;;23.63;58.09
73383;BME280;61600;48.126;11.542;2022-07-23T09:13:50;95851.63;;;23.85;57.91
73383;BME280;61600;48.126;11.542;2022-07-23T09:16:30;95862.16;;;23.95;57.61
73383;BME280;61600;48.126;11.542;2022-07-23T09:21:32;95857.63;;;24.06;57.17
73383;BME280;61600;48.126;11.542;2022-07-23T09:26:48;95864.19;;;24.36;55.95
73383;BME280;61600;48.126;11.542;2022-07-23T09:29:19;95857.88;;;24.59;55.84
73383;BME280;61600;48.126;11.542;2022-07-23T09:31:52;95860.34;;;24.64;55.82
73383;BME280;61600;48.126;11.542;2022-07-23T09:34:31;95863.16;;;24.45;55.00
73383;BME280;61600;48.126;11.542;2022-07-23T09:39:35;95871.03;;;24.62;54.28
73383;BME280;61600;48.126;11.542;2022-07-23T09:42:25;95863.47;;;24.40;54.35
73383;BME280;61600;48.126;11.542;2022-07-23T09:44:52;95859.19;;;24.46;53.77
73383;BME280;61600;48.126;11.542;2022-07-23T09:47:20;95847.63;;;24.63;52.90
73383;BME280;61600;48.126;11.542;2022-07-23T09:50:05;95852.50;;;24.92;52.79
73383;BME280;61600;48.126;11.542;2022-07-23T09:52:34;95844.16;;;25.15;51.94
73383;BME280;61600;48.126;11.542;2022-07-23T09:55:01;95851.16;;;25.31;51.20
73383;BME280;61600;48.126;11.542;2022-07-23T09:57:27;95844.78;;;25.31;48.42
73383;BME280;61600;48.126;11.542;2022-07-23T09:59:57;95833.91;;;25.49;48.53
73383;BME280;61600;48.126;11.542;2022-07-23T10:02:24;95840.44;;;25.33;48.49
73383;BME280;61600;48.126;11.542;2022-07-23T10:04:53;95837.81;;;25.44;48.31
73383;BME280;61600;48.126;11.542;2022-07-23T10:07:21;95845.34;;;25.66;47.87
73383;BME280;61600;48.126;11.542;2022-07-23T10:09:48;95843.97;;;25.83;46.68
73383;BME280;61600;48.126;11.542;2022-07-23T10:12:14;95837.22;;;25.84;46.81
73383;BME280;61600;48.126;11.542;2022-07-23T10:14:58;95836.09;;;25.89;46.00
73383;BME280;61600;48.126;11.542;2022-07-23T10:17:27;95833.38;;;25.96;46.34
73383;BME280;61600;48.126;11.542;2022-07-23T10:19:53;95816.53;;;26.18;46.17
73383;BME280;61600;48.126;11.542;2022-07-23T10:22:22;95819.97;;;26.38;45.76
73383;BME280;61600;48.126;11.542;2022-07-23T10:36:07;95816.47;;;26.89;45.21
73383;BME280;61600;48.126;11.542;2022-07-23T10:41:36;95802.41;;;26.81;43.14
73383;BME280;61600;48.126;11.542;2022-07-23T10:44:18;95796.56;;;26.90;43.34
73383;BME280;61600;48.126;11.542;2022-07-23T10:46:59;95807.91;;;27.11;42.15
73383;BME280;61600;48.126;11.542;2022-07-23T10:49:30;95804.44;;;27.32;41.13
73383;BME280;61600;48.126;11.542;2022-07-23T10:57:10;95817.59;;;27.28;41.02
73383;BME280;61600;48.126;11.542;2022-07-23T11:02:32;95802.75;;;27.20;41.67
73383;BME280;61600;48.126;11.542;2022-07-23T11:05:05;95799.84;;;27.03;42.73
73383;BME280;61600;48.126;11.542;2022-07-23T11:07:33;95801.50;;;27.11;42.29
73383;BME280;61600;48.126;11.542;2022-07-23T11:09:58;95813.38;;;26.97;42.53
73383;BME280;61600;48.126;11.542;2022-07-23T11:17:28;95802.75;;;27.20;42.47
73383;BME280;61600;48.126;11.542;2022-07-23T11:22:39;95794.16;;;26.92;42.61
73383;BME280;61600;48.126;11.542;2022-07-23T11:25:06;95798.91;;;26.44;43.45
73383;BME280;61600;48.126;11.542;2022-07-23T11:27:43;95794.38;;;26.32;44.57
73383;BME280;61600;48.126;11.542;2022-07-23T11:32:54;95794.75;;;26.27;44.58
73383;BME280;61600;48.126;11.542;2022-07-23T11:36:00;95797.56;;;26.31;45.40
73383;BME280;61600;48.126;11.542;2022-07-23T11:38:30;95792.81;;;26.31;44.80
73383;BME280;61600;48.126;11.542;2022-07-23T11:40:57;95794.31;;;26.25;44.78
73383;BME280;61600;48.126;11.542;2022-07-23T11:43:24;95789.38;;;26.15;44.92
73383;BME280;61600;48.126;11.542;2022-07-23T11:45:51;95790.63;;;26.18;45.13
73383;BME280;61600;48.126;11.542;2022-07-23T11:48:22;95797.03;;;26.18;45.48
73383;BME280;61600;48.126;11.542;2022-07-23T11:50:49;95796.53;;;26.13;45.34
73383;BME280;61600;48.126;11.542;2022-07-23T11:53:25;95792.88;;;26.05;45.31
73383;BME280;61600;48.126;11.542;2022-07-23T11:55:52;95807.03;;;25.93;46.24
73383;BME280;61600;48.126;11.542;2022-07-23T11:58:18;95812.44;;;25.75;46.19
73383;BME280;61600;48.126;11.542;2022-07-23T12:00:44;95804.66;;;25.92;46.91
73383;BME280;61600;48.126;11.542;2022-07-23T12:03:09;95794.75;;;25.98;46.64
73383;BME280;61600;48.126;11.542;2022-07-23T12:05:36;95794.41;;;25.99;46.75
73383;BME280;61600;48.126;11.542;2022-07-23T12:08:05;95793.81;;;25.87;47.32
73383;BME280;61600;48.126;11.542;2022-07-23T12:10:39;95800.16;;;25.83;47.35
73383;BME280;61600;48.126;11.542;2022-07-23T12:13:18;95794.31;;;25.62;48.31
73383;BME280;61600;48.126;11.542;2022-07-23T12:15:52;95792.13;;;25.75;47.54
73383;BME280;61600;48.126;11.542;2022-07-23T12:18:23;95785.69;;;25.71;47.48
73383;BME280;61600;48.126;11.542;2022-07-23T12:20:52;95793.69;;;25.76;47.62
73383;BME280;61600;48.126;11.542;2022-07-23T12:23:20;95795.94;;;25.63;48.05
73383;BME280;61600;48.126;11.542;2022-07-23T12:25:47;95792.47;;;25.44;48.60
73383;BME280;61600;48.126;11.542;2022-07-23T12:28:30;95790.09;;;25.46;48.62
73383;BME280;61600;48.126;11.542;2022-07-23T12:30:57;95803.22;;;25.45;48.42
73383;BME280;61600;48.126;11.542;2022-07-23T12:33:39;95794.41;;;25.40;48.82
73383;BME280;61600;48.126;11.542;2022-07-23T12:36:07;95796.69;;;25.34;48.61
73383;BME280;61600;48.126;11.542;2022-07-23T12:41:16;95801.03;;;25.58;48.07
73383;BME280;61600;48.126;11.542;2022-07-23T12:43:44;95799.38;;;25.27;48.69
73383;BME280;61600;48.126;11.542;2022-07-23T12:46:19;95794.53;;;25.50;48.34
73383;BME280;61600;48.126;11.542;2022-07-23T12:51:22;95803.97;;;25.68;47.71
73383;BME280;61600;48.126;11.542;2022-07-23T12:53:53;95796.13;;;25.77;47.92
73383;BME280;61600;48.126;11.542;2022-07-23T12:56:46;95794.94;;;25.78;47.44
73383;BME280;61600;48.126;11.542;2022-07-23T12:59:14;95803.03;;;25.57;47.89
73383;BME280;61600;48.126;11.542;2022-07-23T13:01:42;95799.66;;;25.74;48.40
73383;BME280;61600;48.126;11.542;2022-07-23T13:06:43;95805.03;;;25.90;47.40
73383;BME280;61600;48.126;11.542;2022-07-23T13:09:13;95809.28;;;25.80;48.11
73383;BME280;61600;48.126;11.542;2022-07-23T13:11:39;95794.38;;;25.66;47.87
73383;BME280;61600;48.126;11.542;2022-07-23T13:14:06;95805.38;;;25.55;48.37
73383;BME280;61600;48.126;11.542;2022-07-23T13:16:32;95811.34;;;25.54;48.61
73383;BME280;61600;48.126;11.542;2022-07-23T13:18:59;95810.28;;;25.65;48.79
73383;BME280;61600;48.126;11.542;2022-07-23T13:21:26;95803.56;;;25.40;48.99
73383;BME280;61600;48.126;11.542;2022-07-23T13:23:53;95807.50;;;25.39;49.89
73383;BME280;61600;48.126;11.542;2022-07-23T13:26:18;95804.88;;;25.23;49.73
73383;BME280;61600;48.126;11.542;2022-07-23T13:28:46;95816.88;;;25.27;50.05
73383;BME280;61600;48.126;11.542;2022-07-23T13:31:12;95806.44;;;25.21;50.58
73383;BME280;61600;48.126;11.542;2022-07-23T13:33:38;95817.69;;;25.28;49.79
73383;BME280;61600;48.126;11.542;2022-07-23T13:36:04;95807.56;;;25.43;50.18
73383;BME280;61600;48.126;11.542;2022-07-23T13:38:30;95808.47;;;25.24;50.01